Time;durP1;ratioP1;P1;durP2;ratioP2;P2;SDS_P1;SDS_P2;PMS_P1;PMS_P2;Temp;Humidity;BMP_temperature;BMP_pressure;BME280_temperature;BME280_humidity;BME280_pressure;Samples;Min_cycle;Max_cycle;Signal;HPM_P1;HPM_P2
2021/03/18 00:01:05;;;;;;;13.55;6.47;;;6.70;99.90;;;;;;4993269;28;20038;-47
2021/03/18 00:03:34;;;;;;;10.43;5.25;;;6.70;99.90;;;;;;4992810;28;20471;-46
2021/03/18 00:06:00;;;;;;;6.95;4.32;;;6.70;99.90;;;;;;4992784;28;20444;-45
2021/03/18 00:08:26;;;;;;;10.35;4.85;;;6.70;99.90;;;;;;4993229;28;20489;-48
2021/03/18 00:10:53;;;;;;;6.43;4.20;;;6.70;99.90;;;;;;4992924;28;20214;-46
2021/03/18 00:13:23;;;;;;;7.97;5.53;;;6.70;99.90;;;;;;5036733;28;20067;-46
2021/03/18 00:15:50;;;;;;;7.88;4.80;;;6.70;99.90;;;;;;5054207;28;20039;-46
2021/03/18 00:18:18;;;;;;;9.20;5.28;;;6.60;99.90;;;;;;5069492;28;20044;-47
2021/03/18 00:20:44;;;;;;;8.25;4.57;;;6.60;99.90;;;;;;5012364;28;20037;-45
2021/03/18 00:23:10;;;;;;;11.48;6.40;;;6.60;99.90;;;;;;5012301;28;20165;-47
2021/03/18 00:25:36;;;;;;;13.20;6.47;;;6.70;99.90;;;;;;4979231;28;20097;-47
2021/03/18 00:28:04;;;;;;;9.77;5.53;;;6.70;99.90;;;;;;5011990;28;20049;-46
2021/03/18 00:30:30;;;;;;;13.95;6.82;;;6.50;99.90;;;;;;5011971;28;20037;-45
2021/03/18 00:32:56;;;;;;;7.75;3.85;;;;;;;;;;5011860;28;20088;-46
2021/03/18 00:35:24;;;;;;;8.27;4.70;;;6.50;99.90;;;;;;5012091;28;20065;-45
2021/03/18 00:37:51;;;;;;;8.40;4.03;;;6.30;99.90;;;;;;4979326;28;20045;-46
2021/03/18 00:40:26;;;;;;;9.52;4.80;;;6.40;99.90;;;;;;4995331;28;20536;-45
2021/03/18 00:42:57;;;;;;;6.70;3.90;;;6.30;99.90;;;;;;5011992;28;20064;-47
2021/03/18 00:45:24;;;;;;;6.65;3.33;;;6.30;99.90;;;;;;5011640;28;20061;-44
2021/03/18 00:47:51;;;;;;;7.40;3.95;;;6.10;99.90;;;;;;4979154;28;20425;-45
2021/03/18 00:50:33;;;;;;;6.15;3.95;;;6.30;99.90;;;;;;5012192;28;20477;-47
2021/03/18 00:52:59;;;;;;;4.95;2.80;;;6.10;99.90;;;;;;5072783;28;20021;-46
2021/03/18 00:55:26;;;;;;;8.50;4.45;;;6.00;99.90;;;;;;5073756;28;20036;-47
2021/03/18 00:57:52;;;;;;;7.50;4.28;;;6.00;99.90;;;;;;5073632;28;20025;-49
2021/03/18 01:00:25;;;;;;;7.13;4.75;;;6.00;99.90;;;;;;5073507;28;20074;-46
2021/03/18 01:02:53;;;;;;;6.85;4.38;;;6.00;99.90;;;;;;5021629;28;20040;-47
2021/03/18 01:05:38;;;;;;;7.22;3.83;;;5.80;99.90;;;;;;5073690;28;20028;-45
2021/03/18 01:08:05;;;;;;;8.63;4.55;;;;;;;;;;5072589;28;20090;-48
2021/03/18 01:10:33;;;;;;;6.68;3.38;;;;;;;;;;5021797;28;20036;-46
2021/03/18 01:13:00;;;;;;;6.32;3.80;;;5.80;99.90;;;;;;5073572;28;20098;-45
2021/03/18 01:15:26;;;;;;;7.35;3.88;;;5.70;99.90;;;;;;5073473;28;20052;-45
2021/03/18 01:17:54;;;;;;;6.90;4.05;;;5.60;99.90;;;;;;5054483;28;20589;-46
2021/03/18 01:20:20;;;;;;;7.10;3.95;;;5.50;99.90;;;;;;5073561;28;20341;-46
2021/03/18 01:22:46;;;;;;;6.35;4.10;;;5.70;99.90;;;;;;5073486;28;20021;-45
2021/03/18 01:25:12;;;;;;;7.57;4.00;;;5.70;99.90;;;;;;5073429;28;20028;-48
2021/03/18 01:27:39;;;;;;;6.90;4.05;;;5.60;99.90;;;;;;4988658;28;20488;-47
2021/03/18 01:30:15;;;;;;;8.07;3.97;;;5.70;99.90;;;;;;5073662;28;20047;-45
2021/03/18 01:32:42;;;;;;;6.28;3.45;;;5.80;99.90;;;;;;5006650;28;20097;-45
2021/03/18 01:35:16;;;;;;;6.57;4.13;;;6.00;99.90;;;;;;5073304;28;20027;-47
2021/03/18 01:37:42;;;;;;;6.85;3.83;;;6.10;99.90;;;;;;5018586;28;20480;-46
2021/03/18 01:40:10;;;;;;;6.00;3.45;;;6.00;99.90;;;;;;5021335;28;20119;-45
2021/03/18 01:42:38;;;;;;;6.20;4.22;;;5.90;99.90;;;;;;5073270;28;20028;-47
2021/03/18 01:45:07;;;;;;;7.85;4.07;;;6.00;99.90;;;;;;5073302;28;20029;-47
2021/03/18 01:47:33;;;;;;;6.47;3.63;;;5.70;99.90;;;;;;4994614;28;20059;-46
2021/03/18 01:49:59;;;;;;;7.97;4.38;;;5.70;99.90;;;;;;5011326;28;20117;-47
2021/03/18 01:52:25;;;;;;;7.45;4.10;;;5.60;99.90;;;;;;4994738;28;20188;-47
2021/03/18 01:54:51;;;;;;;4.78;3.33;;;5.50;99.90;;;;;;4994433;28;20038;-46
2021/03/18 01:57:17;;;;;;;9.80;4.72;;;5.40;99.90;;;;;;5011533;28;20052;-47
2021/03/18 01:59:42;;;;;;;6.03;3.83;;;5.50;99.90;;;;;;5011023;28;20026;-46
2021/03/18 02:02:09;;;;;;;8.70;4.38;;;5.60;99.90;;;;;;4994516;28;20038;-45
2021/03/18 02:04:35;;;;;;;8.52;4.00;;;5.70;99.90;;;;;;5011161;28;20057;-47
2021/03/18 02:07:00;;;;;;;7.90;4.60;;;5.50;99.90;;;;;;4977788;28;20050;-47
2021/03/18 02:09:26;;;;;;;6.82;3.42;;;5.50;99.90;;;;;;4978573;28;20457;-45
2021/03/18 02:11:53;;;;;;;6.43;3.95;;;5.30;99.90;;;;;;5010878;28;20026;-47
2021/03/18 02:14:19;;;;;;;4.10;2.65;;;5.30;99.90;;;;;;4963361;28;20038;-47
2021/03/18 02:16:47;;;;;;;7.93;4.43;;;5.10;99.90;;;;;;4997738;28;20064;-45
2021/03/18 02:19:27;;;;;;;7.28;4.38;;;5.20;99.90;;;;;;5063802;28;20044;-45
2021/03/18 02:22:02;;;;;;;9.18;4.75;;;5.00;99.90;;;;;;5076399;28;20024;-46
2021/03/18 02:24:50;;;;;;;5.95;3.72;;;5.10;99.90;;;;;;5076574;28;20031;-48
2021/03/18 02:27:34;;;;;;;6.97;3.97;;;5.10;99.90;;;;;;5076445;28;20509;-47
2021/03/18 02:30:40;;;;;;;7.47;4.70;;;5.10;99.90;;;;;;5076207;28;20052;-47
2021/03/18 02:33:43;;;;;;;9.82;4.10;;;5.10;99.90;;;;;;5076393;28;20104;-47
2021/03/18 02:36:19;;;;;;;9.63;4.90;;;5.10;99.90;;;;;;5076384;28;20020;-47
2021/03/18 02:38:52;;;;;;;6.32;4.13;;;5.20;99.90;;;;;;5076121;28;20033;-46
2021/03/18 02:41:24;;;;;;;7.40;3.90;;;5.10;99.90;;;;;;5076194;28;20048;-46
2021/03/18 02:44:07;;;;;;;8.57;4.93;;;4.90;99.90;;;;;;5076038;28;20111;-47
2021/03/18 02:46:34;;;;;;;3.30;2.13;;;;;;;;;;5075546;28;20036;-47
2021/03/18 02:49:04;;;;;;;7.53;4.20;;;4.40;99.90;;;;;;5040431;28;20040;-46
2021/03/18 02:51:36;;;;;;;8.25;4.78;;;4.40;99.90;;;;;;5075969;28;20036;-47
2021/03/18 02:54:06;;;;;;;9.73;3.60;;;4.20;99.90;;;;;;5075854;28;20056;-47
2021/03/18 02:56:33;;;;;;;8.88;4.13;;;4.20;99.90;;;;;;5024909;28;20054;-48
2021/03/18 02:59:01;;;;;;;9.80;4.60;;;4.20;99.90;;;;;;5075868;28;20099;-46
2021/03/18 03:01:27;;;;;;;6.82;4.15;;;4.10;99.90;;;;;;5075716;28;20059;-46
2021/03/18 03:03:55;;;;;;;8.65;4.57;;;4.20;99.90;;;;;;5023655;28;20078;-46
2021/03/18 03:06:22;;;;;;;10.73;4.70;;;4.40;99.90;;;;;;5075595;28;20032;-46
2021/03/18 03:08:48;;;;;;;6.95;4.47;;;;;;;;;;5075694;28;20479;-44
2021/03/18 03:11:17;;;;;;;10.90;5.70;;;4.70;99.90;;;;;;5075395;28;20067;-47
2021/03/18 03:13:46;;;;;;;9.07;4.90;;;4.60;99.90;;;;;;5075410;28;20040;-46
2021/03/18 03:16:16;;;;;;;8.13;4.78;;;4.70;99.90;;;;;;5075151;28;20078;-46
2021/03/18 03:18:44;;;;;;;7.13;4.47;;;4.80;99.90;;;;;;5052848;28;20431;-47
2021/03/18 03:21:13;;;;;;;8.50;4.28;;;4.80;99.90;;;;;;5055132;28;20032;-45
2021/03/18 03:23:39;;;;;;;11.15;5.38;;;4.70;99.90;;;;;;5055416;28;20025;-47
2021/03/18 03:26:06;;;;;;;7.63;4.22;;;4.90;99.90;;;;;;5055086;28;20037;-46
2021/03/18 03:28:33;;;;;;;9.23;5.00;;;;;;;;;;5055121;28;20021;-44
2021/03/18 03:31:00;;;;;;;9.07;5.35;;;5.10;99.90;;;;;;5054769;28;20033;-46
2021/03/18 03:33:27;;;;;;;6.63;4.18;;;5.10;99.90;;;;;;5055122;28;20139;-47
2021/03/18 03:35:54;;;;;;;7.20;3.65;;;5.10;99.90;;;;;;5054880;28;20411;-47
2021/03/18 03:38:20;;;;;;;9.63;5.00;;;4.70;99.90;;;;;;5019878;28;20568;-45
2021/03/18 03:40:47;;;;;;;9.23;4.63;;;4.90;99.90;;;;;;5055238;28;20108;-45
2021/03/18 03:43:14;;;;;;;8.57;4.45;;;4.80;99.90;;;;;;5054649;28;20025;-45
2021/03/18 03:45:40;;;;;;;10.13;5.07;;;4.80;99.90;;;;;;5019704;28;20116;-47
2021/03/18 03:48:06;;;;;;;8.05;4.68;;;4.80;99.90;;;;;;5019646;28;20178;-45
2021/03/18 03:50:33;;;;;;;8.05;4.90;;;4.80;99.90;;;;;;5019648;28;20037;-47
2021/03/18 03:53:31;;;;;;;8.95;4.68;;;4.80;99.90;;;;;;5054370;28;20029;-47
2021/03/18 03:56:12;;;;;;;5.75;3.28;;;4.90;99.90;;;;;;5054673;28;20024;-47
2021/03/18 03:58:59;;;;;;;7.32;4.22;;;4.70;99.90;;;;;;5022275;28;20071;-47
2021/03/18 04:01:45;;;;;;;9.73;4.50;;;4.80;99.90;;;;;;5054202;28;20029;-47
2021/03/18 04:04:33;;;;;;;8.73;4.65;;;4.70;99.90;;;;;;5054521;28;20383;-48
2021/03/18 04:07:01;;;;;;;4.75;3.13;;;4.80;99.90;;;;;;5054364;28;20033;-46
2021/03/18 04:09:29;;;;;;;8.98;4.50;;;4.70;99.90;;;;;;5054500;28;20025;-45
2021/03/18 04:11:56;;;;;;;8.32;4.88;;;4.80;99.90;;;;;;5054190;28;20068;-45
2021/03/18 04:14:28;;;;;;;11.27;4.75;;;4.70;99.90;;;;;;5053817;28;20025;-47
2021/03/18 04:16:57;;;;;;;8.07;4.43;;;4.50;99.90;;;;;;5058311;28;20097;-47
2021/03/18 04:19:24;;;;;;;9.20;4.65;;;4.60;99.90;;;;;;5074153;28;20292;-47
2021/03/18 04:21:53;;;;;;;7.45;4.00;;;4.50;99.90;;;;;;5074060;28;20032;-46
2021/03/18 04:24:20;;;;;;;6.00;3.58;;;4.30;99.90;;;;;;5074053;28;20024;-47
2021/03/18 04:26:47;;;;;;;7.88;4.70;;;4.40;99.90;;;;;;5073968;28;20036;-46
2021/03/18 04:29:14;;;;;;;8.05;4.13;;;4.50;99.90;;;;;;5022105;28;20052;-45
2021/03/18 04:31:42;;;;;;;8.45;4.50;;;4.50;99.90;;;;;;5021894;28;20082;-45
2021/03/18 04:34:10;;;;;;;6.82;4.20;;;4.40;99.90;;;;;;5074281;28;20060;-47
2021/03/18 04:36:37;;;;;;;7.07;4.05;;;4.30;99.90;;;;;;5073184;28;20036;-46
2021/03/18 04:39:06;;;;;;;6.30;3.55;;;4.40;99.90;;;;;;5073911;28;20414;-46
2021/03/18 04:41:32;;;;;;;8.80;4.05;;;4.20;99.90;;;;;;5073578;28;20498;-45
2021/03/18 04:43:59;;;;;;;7.78;4.43;;;4.30;99.90;;;;;;5073643;28;20032;-47
2021/03/18 04:46:26;;;;;;;7.60;4.30;;;4.30;99.90;;;;;;5038041;28;20372;-45
2021/03/18 04:48:55;;;;;;;8.93;4.85;;;4.30;99.90;;;;;;5073636;28;20029;-45
2021/03/18 04:51:21;;;;;;;6.50;4.25;;;4.40;99.90;;;;;;5021748;28;20109;-46
2021/03/18 04:53:47;;;;;;;9.85;4.75;;;4.40;99.90;;;;;;5073524;28;20025;-45
2021/03/18 04:56:14;;;;;;;7.30;4.68;;;4.30;99.90;;;;;;5073550;28;20120;-47
2021/03/18 04:58:41;;;;;;;8.52;4.82;;;4.30;99.90;;;;;;5022363;28;20032;-47
2021/03/18 05:01:09;;;;;;;6.22;4.10;;;4.20;99.90;;;;;;5074025;28;20082;-46
2021/03/18 05:03:36;;;;;;;9.65;4.47;;;4.20;99.90;;;;;;5073481;28;20089;-47
2021/03/18 05:06:04;;;;;;;7.72;4.80;;;4.20;99.90;;;;;;5073174;28;20033;-45
2021/03/18 05:08:32;;;;;;;9.75;5.15;;;4.10;99.90;;;;;;5073396;28;20032;-47
2021/03/18 05:10:58;;;;;;;7.22;4.53;;;4.10;99.90;;;;;;5054655;28;20037;-47
2021/03/18 05:13:25;;;;;;;8.88;4.38;;;4.10;99.90;;;;;;5073036;28;20036;-47
2021/03/18 05:15:52;;;;;;;9.80;5.30;;;4.10;99.90;;;;;;5073514;28;20108;-47
2021/03/18 05:18:20;;;;;;;8.75;4.85;;;4.20;99.90;;;;;;5021254;28;20040;-47
2021/03/18 05:20:47;;;;;;;12.10;6.15;;;4.10;99.90;;;;;;5038456;28;20033;-47
2021/03/18 05:23:15;;;;;;;29.38;13.65;;;4.00;99.90;;;;;;5021398;28;20111;-45
2021/03/18 05:25:41;;;;;;;34.33;15.93;;;4.00;99.90;;;;;;5073054;28;20021;-46
2021/03/18 05:28:09;;;;;;;33.75;13.30;;;4.00;99.90;;;;;;5073122;28;20072;-48
2021/03/18 05:30:35;;;;;;;21.65;9.55;;;4.10;99.90;;;;;;5073129;28;20032;-47
2021/03/18 05:33:03;;;;;;;31.27;15.60;;;3.90;99.90;;;;;;5073119;28;20025;-47
2021/03/18 05:35:29;;;;;;;19.00;9.25;;;4.00;99.90;;;;;;5021301;28;20547;-48
2021/03/18 05:37:55;;;;;;;26.83;12.50;;;4.10;99.90;;;;;;5073215;28;20052;-46
2021/03/18 05:40:21;;;;;;;20.75;9.48;;;4.00;99.90;;;;;;5073386;28;20107;-45
2021/03/18 05:42:48;;;;;;;20.63;10.52;;;4.00;99.90;;;;;;5073196;28;20024;-45
2021/03/18 05:45:15;;;;;;;16.52;8.90;;;4.00;99.90;;;;;;5072924;28;20464;-47
2021/03/18 05:47:41;;;;;;;12.07;6.70;;;4.10;99.90;;;;;;5021269;28;20410;-46
2021/03/18 05:50:17;;;;;;;14.98;7.72;;;4.10;99.90;;;;;;5076232;28;20050;-46
2021/03/18 05:52:43;;;;;;;11.00;6.25;;;4.10;99.90;;;;;;5076838;28;20032;-46
2021/03/18 05:55:09;;;;;;;6.97;4.25;;;4.10;99.90;;;;;;5077016;28;20024;-47
2021/03/18 05:57:37;;;;;;;7.18;4.13;;;4.00;99.90;;;;;;4992069;28;20037;-47
2021/03/18 06:00:11;;;;;;;8.88;4.65;;;4.00;99.90;;;;;;5076847;28;20078;-48
2021/03/18 06:02:37;;;;;;;8.45;4.95;;;4.00;99.90;;;;;;5025595;28;20090;-48
2021/03/18 06:05:07;;;;;;;9.80;4.93;;;4.00;99.90;;;;;;5076768;28;20070;-48
2021/03/18 06:07:35;;;;;;;8.60;5.57;;;4.00;99.90;;;;;;5025714;28;20499;-47
2021/03/18 06:10:01;;;;;;;9.38;4.93;;;3.90;99.90;;;;;;5076721;28;20355;-46
2021/03/18 06:12:27;;;;;;;10.07;6.05;;;3.90;99.90;;;;;;5076465;28;20101;-48
2021/03/18 06:14:53;;;;;;;9.30;5.65;;;4.00;99.90;;;;;;5076357;28;20029;-49
2021/03/18 06:17:19;;;;;;;9.85;5.32;;;4.00;99.90;;;;;;5076455;28;20065;-47
2021/03/18 06:19:45;;;;;;;8.23;5.28;;;3.90;99.90;;;;;;5076443;28;20032;-46
2021/03/18 06:22:10;;;;;;;8.20;5.05;;;4.00;99.90;;;;;;5076393;28;20031;-47
2021/03/18 06:24:47;;;;;;;9.45;5.18;;;;;;;;;;4991507;28;20440;-48
2021/03/18 06:27:23;;;;;;;9.95;4.75;;;4.30;99.90;;;;;;5076385;28;20072;-48
2021/03/18 06:29:48;;;;;;;8.80;4.68;;;4.30;99.90;;;;;;5076424;28;20028;-48
2021/03/18 06:32:21;;;;;;;10.23;5.38;;;4.40;99.90;;;;;;5041132;28;20557;-48
2021/03/18 06:34:52;;;;;;;7.85;3.92;;;4.50;99.90;;;;;;5076110;28;20554;-47
2021/03/18 06:37:42;;;;;;;8.95;5.13;;;4.60;99.90;;;;;;5021723;28;20040;-48
2021/03/18 06:40:19;;;;;;;11.52;5.90;;;4.60;99.90;;;;;;5076266;28;20114;-48
2021/03/18 06:43:12;;;;;;;9.02;5.78;;;4.70;99.90;;;;;;5026004;28;20029;-47
2021/03/18 06:45:40;;;;;;;8.95;5.10;;;4.70;99.90;;;;;;5071722;28;20028;-48
2021/03/18 06:48:14;;;;;;;7.10;4.82;;;4.70;99.90;;;;;;4986659;28;20045;-47
2021/03/18 06:50:48;;;;;;;12.25;7.57;;;4.90;99.90;;;;;;5075793;28;20033;-48
2021/03/18 06:53:18;;;;;;;12.27;6.63;;;5.00;99.90;;;;;;5075948;28;20025;-47
2021/03/18 06:55:44;;;;;;;11.32;6.57;;;5.00;99.90;;;;;;5075509;28;20040;-49
2021/03/18 06:58:20;;;;;;;10.20;5.35;;;4.90;99.90;;;;;;5007367;28;20040;-46
2021/03/18 07:00:50;;;;;;;9.57;5.75;;;5.00;99.90;;;;;;5023608;28;20492;-53
2021/03/18 07:03:31;;;;;;;10.15;6.50;;;5.00;99.90;;;;;;5075670;28;20480;-52
2021/03/18 07:05:58;;;;;;;10.07;5.80;;;5.00;99.90;;;;;;5075454;28;20029;-51
2021/03/18 07:08:38;;;;;;;10.65;5.88;;;5.00;99.90;;;;;;5075781;28;20041;-48
2021/03/18 07:11:22;;;;;;;9.27;5.10;;;5.00;99.90;;;;;;5075481;28;20028;-49
2021/03/18 07:13:49;;;;;;;4.38;2.55;;;5.00;99.90;;;;;;5075279;28;20466;-49
2021/03/18 07:16:15;;;;;;;12.57;6.60;;;4.70;99.90;;;;;;5075454;28;20024;-48
2021/03/18 07:18:53;;;;;;;9.48;5.53;;;4.90;99.90;;;;;;5023811;28;20091;-52
2021/03/18 07:21:19;;;;;;;9.18;5.50;;;5.10;99.90;;;;;;5075467;28;20594;-49
2021/03/18 07:23:48;;;;;;;12.77;5.95;;;5.10;99.90;;;;;;5075405;28;20020;-49
2021/03/18 07:26:22;;;;;;;11.48;5.63;;;5.30;99.90;;;;;;5075361;28;20036;-49
2021/03/18 07:28:53;;;;;;;9.05;5.47;;;5.20;99.90;;;;;;5075164;28;20059;-51
2021/03/18 07:31:20;;;;;;;11.65;6.50;;;5.30;99.90;;;;;;5057221;28;20468;-49
2021/03/18 07:33:48;;;;;;;9.88;5.80;;;5.30;99.90;;;;;;5075177;28;20033;-52
2021/03/18 07:36:15;;;;;;;6.55;4.45;;;5.50;99.90;;;;;;5023839;28;20062;-49
2021/03/18 07:38:42;;;;;;;10.32;6.25;;;5.30;99.90;;;;;;5075081;28;20487;-49
2021/03/18 07:41:17;;;;;;;9.70;6.18;;;5.20;99.90;;;;;;5075213;28;20028;-49
2021/03/18 07:43:44;;;;;;;11.57;6.45;;;5.30;99.90;;;;;;5074892;28;20494;-53
2021/03/18 07:46:19;;;;;;;11.10;5.90;;;5.50;99.90;;;;;;5074858;28;20024;-52
2021/03/18 07:48:49;;;;;;;12.32;6.95;;;5.30;99.90;;;;;;5074802;28;20379;-49
2021/03/18 07:51:16;;;;;;;10.65;6.50;;;5.40;99.90;;;;;;5074712;28;20032;-49
2021/03/18 07:53:50;;;;;;;12.65;7.10;;;5.60;99.90;;;;;;5074558;28;20020;-52
2021/03/18 07:56:16;;;;;;;10.68;5.75;;;;;;;;;;5074522;28;20030;-51
2021/03/18 07:58:47;;;;;;;9.05;4.90;;;6.10;99.90;;;;;;5074685;28;20447;-52
2021/03/18 08:01:31;;;;;;;6.85;4.68;;;6.00;99.90;;;;;;5074636;28;20646;-53
2021/03/18 08:03:58;;;;;;;7.85;4.88;;;5.90;99.90;;;;;;5023271;28;20028;-55
2021/03/18 08:06:50;;;;;;;3.78;2.63;;;6.00;99.90;;;;;;5074623;28;20047;-48
2021/03/18 08:09:38;;;;;;;8.98;4.85;;;5.80;99.90;;;;;;5019667;28;20061;-48
2021/03/18 08:12:04;;;;;;;9.40;5.28;;;5.80;99.90;;;;;;5021498;28;20029;-49
2021/03/18 08:14:30;;;;;;;7.57;5.10;;;5.80;99.90;;;;;;5074310;28;20497;-47
2021/03/18 08:16:56;;;;;;;9.07;5.05;;;6.00;99.90;;;;;;5055413;28;20044;-50
2021/03/18 08:19:23;;;;;;;8.77;5.07;;;5.90;99.90;;;;;;4989688;28;20044;-49
2021/03/18 08:21:50;;;;;;;9.75;4.78;;;6.00;99.90;;;;;;5074016;28;20025;-50
2021/03/18 08:24:23;;;;;;;7.90;3.88;;;6.00;99.90;;;;;;5074071;28;20024;-51
2021/03/18 08:27:03;;;;;;;8.23;5.00;;;5.70;99.90;;;;;;5070699;28;20033;-50
2021/03/18 08:29:48;;;;;;;8.57;5.07;;;5.80;99.90;;;;;;5073871;28;20024;-49
2021/03/18 08:32:27;;;;;;;10.98;5.30;;;5.60;99.90;;;;;;5021946;28;20037;-49
2021/03/18 08:35:01;;;;;;;18.63;6.60;;;5.40;99.90;;;;;;5073777;28;20024;-50
2021/03/18 08:37:37;;;;;;;8.73;5.07;;;5.70;99.90;;;;;;5022083;28;20119;-48
2021/03/18 08:40:10;;;;;;;7.95;4.55;;;5.50;99.90;;;;;;5022085;28;20044;-51
2021/03/18 08:42:39;;;;;;;10.07;4.95;;;5.60;99.90;;;;;;4990774;28;20036;-49
2021/03/18 08:45:08;;;;;;;10.23;5.30;;;5.50;99.90;;;;;;5052371;28;20383;-50
2021/03/18 08:47:38;;;;;;;8.65;5.00;;;5.60;99.90;;;;;;5037925;28;20037;-49
2021/03/18 08:50:07;;;;;;;8.05;4.95;;;5.70;99.90;;;;;;5073215;28;20029;-51
2021/03/18 08:52:44;;;;;;;7.13;4.22;;;5.70;99.90;;;;;;4973859;28;20127;-50
2021/03/18 08:55:34;;;;;;;7.43;4.68;;;5.70;99.90;;;;;;5011696;28;20122;-50
2021/03/18 08:57:59;;;;;;;8.70;5.25;;;6.10;99.90;;;;;;5011876;28;20068;-50
2021/03/18 09:00:25;;;;;;;9.98;5.13;;;6.10;99.90;;;;;;5011491;28;20050;-48
2021/03/18 09:02:51;;;;;;;12.77;6.35;;;6.30;99.90;;;;;;5011670;28;20068;-47
2021/03/18 09:05:21;;;;;;;13.73;6.57;;;6.40;99.90;;;;;;4994987;28;20116;-48
2021/03/18 09:07:53;;;;;;;8.18;5.50;;;6.30;99.90;;;;;;5011447;28;20038;-50
2021/03/18 09:10:23;;;;;;;15.98;8.32;;;6.20;99.90;;;;;;4978765;28;20136;-48
2021/03/18 09:12:52;;;;;;;11.65;5.22;;;6.40;99.90;;;;;;5010865;28;20030;-51
2021/03/18 09:15:39;;;;;;;14.13;6.45;;;6.40;99.90;;;;;;5011499;28;20038;-50
2021/03/18 09:18:12;;;;;;;11.77;5.18;;;6.30;99.90;;;;;;5008484;28;20145;-51
2021/03/18 09:20:40;;;;;;;6.10;3.35;;;6.40;99.90;;;;;;5011638;28;20092;-51
2021/03/18 09:23:28;;;;;;;11.48;6.15;;;6.00;99.90;;;;;;4995855;28;20034;-51
2021/03/18 09:26:00;;;;;;;10.23;5.78;;;6.10;99.90;;;;;;5039816;28;20040;-50
2021/03/18 09:28:32;;;;;;;4.97;2.70;;;6.00;99.90;;;;;;5077523;28;20037;-51
2021/03/18 09:30:58;;;;;;;10.25;5.65;;;5.90;99.90;;;;;;5077386;28;20479;-52
2021/03/18 09:33:32;;;;;;;12.40;6.03;;;6.00;99.90;;;;;;5076206;28;20025;-49
2021/03/18 09:36:01;;;;;;;9.82;5.65;;;6.10;99.90;;;;;;5076270;28;20033;-48
2021/03/18 09:38:33;;;;;;;9.75;6.13;;;6.00;99.90;;;;;;5076151;28;20021;-49
2021/03/18 09:41:01;;;;;;;8.80;5.03;;;5.90;99.90;;;;;;5076353;28;20032;-51
2021/03/18 09:43:28;;;;;;;10.77;5.65;;;5.80;99.90;;;;;;5076020;28;20479;-51
2021/03/18 09:46:05;;;;;;;7.15;4.07;;;5.90;99.90;;;;;;5075794;28;20470;-49
2021/03/18 09:48:32;;;;;;;9.43;5.07;;;5.90;99.90;;;;;;5023714;28;20052;-51
2021/03/18 09:51:15;;;;;;;10.45;5.85;;;5.80;99.90;;;;;;5023763;28;20033;-50
2021/03/18 09:53:43;;;;;;;6.25;3.25;;;5.80;99.90;;;;;;5075738;28;20031;-50
2021/03/18 09:56:11;;;;;;;9.20;5.43;;;5.70;99.90;;;;;;5075746;28;20020;-51
2021/03/18 09:58:38;;;;;;;10.50;6.45;;;5.70;99.90;;;;;;5075764;28;20027;-50
2021/03/18 10:01:19;;;;;;;9.80;4.93;;;5.70;99.90;;;;;;5075686;28;20021;-49
2021/03/18 10:03:59;;;;;;;12.98;6.32;;;5.60;99.90;;;;;;5075623;28;20475;-49
2021/03/18 10:06:33;;;;;;;9.38;5.60;;;5.70;99.90;;;;;;5075411;28;20125;-49
2021/03/18 10:09:23;;;;;;;10.55;5.50;;;5.70;99.90;;;;;;5075429;28;20376;-50
2021/03/18 10:11:55;;;;;;;8.50;4.93;;;5.80;99.90;;;;;;5072161;28;20108;-50
2021/03/18 10:14:29;;;;;;;10.48;4.95;;;6.00;99.90;;;;;;5039821;28;20040;-49
2021/03/18 10:16:55;;;;;;;19.00;8.98;;;5.80;99.90;;;;;;5075149;28;20135;-49
2021/03/18 10:19:25;;;;;;;11.82;5.93;;;5.80;99.90;;;;;;5075150;28;20542;-51
2021/03/18 10:21:51;;;;;;;15.13;8.30;;;5.70;99.90;;;;;;5075158;28;20478;-49
2021/03/18 10:24:17;;;;;;;14.95;7.82;;;5.80;99.90;;;;;;5075212;28;20476;-51
2021/03/18 10:26:44;;;;;;;18.02;8.45;;;5.90;99.90;;;;;;5074908;28;20051;-51
2021/03/18 10:29:12;;;;;;;19.27;9.57;;;6.00;99.90;;;;;;5075087;28;20029;-51
2021/03/18 10:31:39;;;;;;;12.80;7.25;;;6.10;99.90;;;;;;5075047;28;20569;-48
2021/03/18 10:34:06;;;;;;;9.65;5.93;;;6.10;99.90;;;;;;5075007;28;20103;-48
2021/03/18 10:36:40;;;;;;;5.53;3.90;;;6.20;99.90;;;;;;5073823;28;20025;-48
2021/03/18 10:39:11;;;;;;;11.05;6.40;;;6.20;99.90;;;;;;5074613;28;20024;-48
2021/03/18 10:41:52;;;;;;;8.88;4.72;;;6.50;99.90;;;;;;5075283;28;20051;-51
2021/03/18 10:44:18;;;;;;;13.63;7.82;;;6.30;99.90;;;;;;5074486;28;20036;-48
2021/03/18 10:46:45;;;;;;;11.98;6.18;;;6.30;99.90;;;;;;5074928;28;20056;-50
2021/03/18 10:49:12;;;;;;;8.90;5.32;;;6.30;99.90;;;;;;5074785;28;20538;-51
2021/03/18 10:51:56;;;;;;;13.88;6.45;;;6.10;99.90;;;;;;5074521;28;20500;-51
2021/03/18 10:54:23;;;;;;;14.25;7.82;;;6.20;99.90;;;;;;5074435;28;20025;-51
2021/03/18 10:56:51;;;;;;;6.55;4.68;;;6.10;99.90;;;;;;5074642;28;20371;-48
2021/03/18 10:59:21;;;;;;;9.68;5.13;;;6.00;99.90;;;;;;5074447;28;20426;-51
2021/03/18 11:01:48;;;;;;;10.63;6.03;;;6.10;99.90;;;;;;5074349;28;20028;-51
2021/03/18 11:04:14;;;;;;;9.40;5.45;;;6.00;99.90;;;;;;5074293;28;20021;-51
2021/03/18 11:06:48;;;;;;;11.48;6.90;;;6.10;99.90;;;;;;5074376;28;20044;-49
2021/03/18 11:09:14;;;;;;;8.82;4.75;;;6.20;99.90;;;;;;5038624;28;20060;-48
2021/03/18 11:11:40;;;;;;;11.68;6.82;;;5.80;99.90;;;;;;5074313;28;20025;-48
2021/03/18 11:14:07;;;;;;;12.10;6.82;;;5.70;99.90;;;;;;5074209;28;20059;-51
2021/03/18 11:16:33;;;;;;;11.98;6.05;;;5.70;99.90;;;;;;5021876;28;20041;-49
2021/03/18 11:19:01;;;;;;;6.45;4.63;;;5.70;99.90;;;;;;5038794;28;20074;-48
2021/03/18 11:21:27;;;;;;;6.82;4.25;;;5.50;99.90;;;;;;5073737;28;20027;-51
2021/03/18 11:23:55;;;;;;;9.13;5.88;;;5.50;99.90;;;;;;5073992;28;20020;-48
2021/03/18 11:26:24;;;;;;;13.50;7.63;;;5.50;99.90;;;;;;5073781;28;20479;-50
2021/03/18 11:28:57;;;;;;;15.30;7.47;;;5.50;99.90;;;;;;5073980;28;20113;-49
2021/03/18 11:31:25;;;;;;;21.15;9.95;;;5.70;99.90;;;;;;5073670;28;20020;-52
2021/03/18 11:33:51;;;;;;;9.10;5.55;;;5.50;99.90;;;;;;5038027;28;20044;-53
2021/03/18 11:36:18;;;;;;;12.93;6.13;;;5.50;99.90;;;;;;5073814;28;20086;-48
2021/03/18 11:38:45;;;;;;;21.52;9.57;;;5.50;99.90;;;;;;5074791;28;20055;-50
2021/03/18 11:41:11;;;;;;;12.15;7.18;;;5.90;99.90;;;;;;5057013;28;20559;-47
2021/03/18 11:43:37;;;;;;;13.10;8.07;;;6.20;99.90;;;;;;5074739;28;20048;-50
2021/03/18 11:46:03;;;;;;;17.55;8.95;;;6.00;99.90;;;;;;5074104;28;20096;-46
2021/03/18 11:48:29;;;;;;;17.35;9.73;;;6.10;99.90;;;;;;5074564;28;20059;-49
2021/03/18 11:50:55;;;;;;;12.63;5.70;;;6.30;99.90;;;;;;5074819;28;20029;-47
2021/03/18 11:53:21;;;;;;;22.98;11.23;;;6.40;99.90;;;;;;5056212;28;20383;-49
2021/03/18 11:55:48;;;;;;;12.13;6.18;;;6.50;99.90;;;;;;5023138;28;20471;-49
2021/03/18 11:58:13;;;;;;;12.52;7.32;;;6.60;99.90;;;;;;5074731;28;20021;-46
2021/03/18 12:00:39;;;;;;;11.07;5.70;;;6.60;99.90;;;;;;5074599;28;20024;-50
2021/03/18 12:03:09;;;;;;;5.53;3.78;;;6.50;99.90;;;;;;5074689;28;20364;-49
2021/03/18 12:05:36;;;;;;;5.50;3.53;;;6.20;99.90;;;;;;5022815;28;20111;-49
2021/03/18 12:08:02;;;;;;;5.18;2.92;;;5.80;99.90;;;;;;5074282;28;20058;-50
2021/03/18 12:10:28;;;;;;;2.33;1.60;;;5.60;99.90;;;;;;5022551;28;20407;-50
2021/03/18 12:12:54;;;;;;;6.78;4.07;;;5.60;99.90;;;;;;5039112;28;20041;-48
2021/03/18 12:15:20;;;;;;;6.60;3.63;;;5.60;99.90;;;;;;5022602;28;20137;-47
2021/03/18 12:17:46;;;;;;;9.80;5.15;;;5.60;99.90;;;;;;5022532;28;20052;-48
2021/03/18 12:20:23;;;;;;;7.13;4.13;;;5.60;99.90;;;;;;5074357;28;20127;-48
2021/03/18 12:22:49;;;;;;;7.93;5.45;;;5.50;99.90;;;;;;5022305;28;20045;-45
2021/03/18 12:25:17;;;;;;;6.10;4.55;;;5.70;99.90;;;;;;5038839;28;20127;-47
2021/03/18 12:27:44;;;;;;;7.90;5.00;;;5.80;99.90;;;;;;5005868;28;20036;-48
2021/03/18 12:30:12;;;;;;;6.55;4.32;;;5.90;99.90;;;;;;5038757;28;20060;-46
2021/03/18 12:32:38;;;;;;;6.70;4.93;;;6.00;99.90;;;;;;4989497;28;20047;-47
2021/03/18 12:35:05;;;;;;;7.22;4.22;;;;;;;;;;5074096;28;20107;-48
2021/03/18 12:37:31;;;;;;;8.82;5.05;;;6.50;99.90;;;;;;5022308;28;20123;-48
2021/03/18 12:39:57;;;;;;;8.10;4.45;;;6.50;99.90;;;;;;5074038;28;20107;-47
2021/03/18 12:42:22;;;;;;;9.32;5.63;;;6.50;99.90;;;;;;5038549;28;20483;-48
2021/03/18 12:44:49;;;;;;;1.45;1.33;;;6.60;99.90;;;;;;5073594;28;20032;-49
2021/03/18 12:47:15;;;;;;;4.93;2.85;;;6.20;99.90;;;;;;5073691;28;20047;-47
2021/03/18 12:49:41;;;;;;;4.35;2.75;;;6.30;99.90;;;;;;5073706;28;20414;-50
2021/03/18 12:52:07;;;;;;;5.95;4.00;;;6.20;99.90;;;;;;5038316;28;20090;-48
2021/03/18 12:54:34;;;;;;;5.43;4.05;;;6.40;99.90;;;;;;5021934;28;20451;-49
2021/03/18 12:57:00;;;;;;;6.90;4.88;;;6.60;99.90;;;;;;5021972;28;20033;-48
2021/03/18 12:59:26;;;;;;;5.60;4.25;;;6.70;99.90;;;;;;5073222;28;20104;-47
2021/03/18 13:01:52;;;;;;;5.88;3.95;;;6.50;99.90;;;;;;5073502;28;20498;-47
2021/03/18 13:04:18;;;;;;;9.68;6.32;;;6.40;99.90;;;;;;5073590;28;20036;-47
2021/03/18 13:06:44;;;;;;;6.03;4.20;;;6.50;99.90;;;;;;5073583;28;20071;-49
2021/03/18 13:09:10;;;;;;;11.98;6.72;;;6.70;99.90;;;;;;5021190;28;20187;-47